createdAt,value
2022-10-25T00:05:25.212Z,69.19
2022-10-25T00:15:28.101Z,69.55
2022-10-25T00:25:29.710Z,69.87
2022-10-25T00:35:31.158Z,69.95
2022-10-25T00:45:32.646Z,70.72
2022-10-25T00:55:35.500Z,71.17
2022-10-25T01:05:38.037Z,71.82
2022-10-25T01:16:09.001Z,72.29
2022-10-25T01:26:19.336Z,71.43
2022-10-25T01:37:01.850Z,71.54
2022-10-25T01:47:17.389Z,71.61
2022-10-25T01:57:21.950Z,71.23
2022-10-25T02:07:38.308Z,71.13
2022-10-25T02:17:48.644Z,71.02
2022-10-25T02:27:53.997Z,71.37
2022-10-25T02:37:55.543Z,71.97
2022-10-25T02:47:56.999Z,72.62
2022-10-25T02:57:58.695Z,72.66
2022-10-25T03:08:00.196Z,72.54
2022-10-25T03:18:01.636Z,72.31
2022-10-25T03:28:04.274Z,72.38
2022-10-25T03:38:05.752Z,72.72
2022-10-25T03:48:07.618Z,73.31
2022-10-25T03:58:09.081Z,73.65
2022-10-25T04:08:10.546Z,73.59
2022-10-25T04:18:12.017Z,73.43
2022-10-25T04:28:13.446Z,73.34
2022-10-25T04:38:14.923Z,73.46
2022-10-25T04:48:18.677Z,73.23
2022-10-25T04:58:21.144Z,73.31
2022-10-25T05:08:22.569Z,73.44
2022-10-25T05:18:24.313Z,73.57
2022-10-25T05:28:25.810Z,73.61
2022-10-25T05:38:33.006Z,73.81
2022-10-25T05:48:39.159Z,73.92
2022-10-25T05:58:41.667Z,74.10
2022-10-25T06:08:43.113Z,73.91
2022-10-25T06:18:45.309Z,74.19
2022-10-25T06:28:47.369Z,74.17
2022-10-25T06:38:49.534Z,74.32
2022-10-25T06:48:52.863Z,74.18
2022-10-25T06:58:55.297Z,74.58
2022-10-25T07:08:59.115Z,74.88
2022-10-25T07:19:02.647Z,74.41
2022-10-25T07:29:04.897Z,74.34
2022-10-25T07:39:06.553Z,74.10
2022-10-25T07:49:08.066Z,73.78
2022-10-25T07:59:09.546Z,73.43
2022-10-25T08:09:14.533Z,68.66
2022-10-25T08:19:16.615Z,45.88
2022-10-25T08:29:18.067Z,28.55
2022-10-25T08:39:19.537Z,22.22
2022-10-25T08:49:39.344Z,20.39
2022-10-25T08:59:44.479Z,19.88
2022-10-25T09:10:00.616Z,19.59
2022-10-25T09:20:27.548Z,18.30
2022-10-25T09:30:35.444Z,18.94
2022-10-25T09:40:53.935Z,19.02
2022-10-25T09:51:13.144Z,20.08
2022-10-25T10:01:21.424Z,21.16
2022-10-25T10:11:23.214Z,23.96
2022-10-25T10:21:25.935Z,24.84
2022-10-25T10:31:46.215Z,25.36
2022-10-25T10:42:19.264Z,25.80
2022-10-25T10:52:36.355Z,24.38
2022-10-25T11:02:41.114Z,25.15
2022-10-25T11:12:44.172Z,28.98
2022-10-25T11:23:10.644Z,36.22
2022-10-25T11:33:36.139Z,40.16
2022-10-25T11:43:58.953Z,41.36
2022-10-25T11:54:18.742Z,41.65
2022-10-25T12:04:39.515Z,40.25
2022-10-25T12:14:45.539Z,40.29
2022-10-25T12:24:52.812Z,37.93
2022-10-25T12:34:55.447Z,38.64
2022-10-25T12:45:24.167Z,39.63
2022-10-25T12:55:54.096Z,39.30
2022-10-25T13:06:23.907Z,38.45
2022-10-25T13:16:33.730Z,39.80
2022-10-25T13:27:13.688Z,39.69
2022-10-25T13:37:33.470Z,41.51
2022-10-25T13:47:48.561Z,40.53
2022-10-25T13:57:50.011Z,41.66
2022-10-25T14:07:51.628Z,41.14
2022-10-25T14:17:55.806Z,41.82
2022-10-25T14:28:09.763Z,41.33
2022-10-25T14:38:22.678Z,41.85
2022-10-25T14:48:24.264Z,42.75
2022-10-25T14:58:27.606Z,43.70
2022-10-25T15:08:30.427Z,43.74
2022-10-25T15:18:37.440Z,44.54
2022-10-25T15:28:50.341Z,45.59
2022-10-25T15:39:16.803Z,46.81
2022-10-25T15:49:19.008Z,47.80
2022-10-25T15:59:20.599Z,49.00
2022-10-25T16:09:22.114Z,50.67
2022-10-25T16:19:24.697Z,51.63
2022-10-25T16:29:26.221Z,52.91
2022-10-25T16:39:27.799Z,55.14
2022-10-25T16:49:29.351Z,56.33
2022-10-25T16:59:30.774Z,57.03
2022-10-25T17:09:32.254Z,57.87
2022-10-25T17:19:34.011Z,59.22
2022-10-25T17:29:35.504Z,60.54
2022-10-25T17:39:36.975Z,61.31
2022-10-25T17:49:39.363Z,61.93
2022-10-25T17:59:40.928Z,62.62
2022-10-25T18:09:42.351Z,63.14
2022-10-25T18:19:43.829Z,63.37
2022-10-25T18:29:45.330Z,63.18
2022-10-25T18:39:47.021Z,63.79
2022-10-25T18:49:48.805Z,64.08
2022-10-25T18:59:50.282Z,64.33
2022-10-25T19:09:51.792Z,65.32
2022-10-25T19:19:53.214Z,65.68
2022-10-25T19:29:54.720Z,66.24
2022-10-25T19:39:58.901Z,66.42
2022-10-25T19:50:01.359Z,66.53
2022-10-25T20:00:03.991Z,67.01
2022-10-25T20:10:08.183Z,68.01
2022-10-25T20:20:10.483Z,68.07
2022-10-25T20:30:12.011Z,68.08
2022-10-25T20:40:15.548Z,68.05
2022-10-25T20:50:17.440Z,68.52
2022-10-25T21:00:20.547Z,68.90
2022-10-25T21:10:22.225Z,69.07
2022-10-25T21:20:23.737Z,68.96
2022-10-25T21:30:25.356Z,68.60
2022-10-25T21:40:26.817Z,69.17
2022-10-25T21:50:28.248Z,69.27
2022-10-25T22:00:29.678Z,69.13
2022-10-25T22:10:31.458Z,68.83
2022-10-25T22:20:32.910Z,68.73
2022-10-25T22:30:34.374Z,68.71
2022-10-25T22:40:35.861Z,68.80
2022-10-25T22:50:37.306Z,68.73
2022-10-25T23:00:38.766Z,68.34
2022-10-25T23:10:40.305Z,68.10
2022-10-25T23:20:52.841Z,68.04
2022-10-25T23:30:54.352Z,68.03
2022-10-25T23:40:55.914Z,67.98
2022-10-25T23:51:07.263Z,67.43
